createdAt,value
2023-11-11T00:00:13.196Z,91.30
2023-11-11T00:01:13.124Z,91.30
2023-11-11T00:02:12.967Z,91.20
2023-11-11T00:03:12.904Z,91.40
2023-11-11T00:04:12.906Z,91.40
2023-11-11T00:05:12.908Z,91.30
2023-11-11T00:06:12.951Z,91.40
2023-11-11T00:07:12.884Z,91.30
2023-11-11T00:08:12.922Z,91.20
2023-11-11T00:09:12.709Z,91.00
2023-11-11T00:10:13.661Z,91.00
2023-11-11T00:11:13.522Z,91.00
2023-11-11T00:12:13.517Z,91.30
2023-11-11T00:13:13.285Z,91.30
2023-11-11T00:14:13.114Z,91.30
2023-11-11T00:15:13.110Z,91.00
2023-11-11T00:16:13.307Z,91.10
2023-11-11T00:17:13.224Z,91.00
2023-11-11T00:18:13.183Z,90.90
2023-11-11T00:19:13.120Z,91.00
2023-11-11T00:20:13.102Z,90.90
2023-11-11T00:21:13.115Z,90.90
2023-11-11T00:22:13.218Z,90.90
2023-11-11T00:23:13.517Z,90.80
2023-11-11T00:24:13.504Z,90.90
2023-11-11T00:25:13.925Z,91.00
2023-11-11T00:26:12.989Z,91.00
2023-11-11T00:27:13.250Z,91.10
2023-11-11T00:28:13.299Z,91.30
2023-11-11T00:29:13.186Z,91.30
2023-11-11T00:30:13.112Z,91.30
2023-11-11T00:31:12.980Z,91.30
2023-11-11T00:32:12.938Z,91.40
2023-11-11T00:34:28.490Z,91.50
2023-11-11T00:35:13.771Z,91.60
2023-11-11T00:36:13.691Z,91.40
2023-11-11T00:37:13.829Z,91.50
2023-11-11T00:38:13.667Z,91.50
2023-11-11T00:39:13.752Z,91.50
2023-11-11T00:40:12.951Z,91.40
2023-11-11T00:41:12.906Z,91.50
2023-11-11T00:42:12.818Z,91.50
2023-11-11T00:43:14.013Z,91.60
2023-11-11T00:44:12.776Z,91.50
2023-11-11T00:45:13.728Z,91.40
2023-11-11T00:46:13.742Z,91.50
2023-11-11T00:47:13.709Z,91.50
2023-11-11T00:48:13.613Z,91.40
2023-11-11T00:49:13.742Z,91.40
2023-11-11T00:50:13.715Z,91.50
2023-11-11T00:51:13.533Z,91.50
2023-11-11T00:52:13.759Z,91.70
2023-11-11T00:53:42.313Z,91.90
2023-11-11T00:54:13.359Z,91.60
2023-11-11T00:55:13.239Z,91.60
2023-11-11T00:56:13.104Z,91.70
2023-11-11T00:57:12.958Z,91.60
2023-11-11T00:58:13.009Z,91.70
2023-11-11T00:59:12.975Z,91.60
2023-11-11T01:00:13.044Z,91.60
2023-11-11T01:01:13.030Z,91.50
2023-11-11T01:02:12.917Z,91.80
2023-11-11T01:03:13.078Z,91.90
2023-11-11T01:04:13.281Z,91.90
2023-11-11T01:05:13.836Z,91.80
2023-11-11T01:06:13.893Z,91.70
2023-11-11T01:07:12.969Z,91.80
2023-11-11T01:08:12.758Z,91.70
2023-11-11T01:09:13.612Z,91.80
2023-11-11T01:10:13.563Z,91.70
2023-11-11T01:11:13.373Z,91.80
2023-11-11T01:12:13.376Z,91.70
2023-11-11T01:13:13.357Z,91.70
2023-11-11T01:14:13.201Z,91.90
2023-11-11T01:15:13.359Z,91.80
2023-11-11T01:16:13.894Z,91.80
2023-11-11T01:17:12.801Z,91.90
2023-11-11T01:18:14.202Z,91.80
2023-11-11T01:19:13.205Z,91.80
2023-11-11T01:20:13.130Z,91.80
2023-11-11T01:21:12.973Z,91.80
2023-11-11T01:22:13.040Z,91.80
2023-11-11T01:23:12.943Z,91.80
2023-11-11T01:24:12.964Z,91.90
2023-11-11T01:25:12.905Z,91.90
2023-11-11T01:26:12.833Z,92.00
2023-11-11T01:27:13.604Z,91.90
2023-11-11T01:28:13.381Z,91.90
2023-11-11T01:29:13.267Z,92.10
2023-11-11T01:30:30.963Z,92.00
2023-11-11T01:31:12.739Z,92.10
2023-11-11T01:32:14.214Z,92.20
2023-11-11T01:33:13.374Z,92.00
2023-11-11T01:34:13.313Z,91.90
2023-11-11T01:35:13.377Z,92.00
2023-11-11T01:36:13.342Z,91.90
2023-11-11T01:37:18.155Z,92.00
2023-11-11T01:38:12.982Z,92.10
2023-11-11T01:39:12.866Z,92.20
2023-11-11T01:40:13.707Z,92.20
2023-11-11T01:41:13.565Z,92.20
2023-11-11T01:42:14.520Z,92.20
2023-11-11T01:43:13.473Z,92.20
2023-11-11T01:44:13.894Z,92.40
2023-11-11T01:45:13.013Z,92.30
2023-11-11T01:46:13.009Z,92.30
2023-11-11T01:47:13.076Z,92.30
2023-11-11T01:48:13.296Z,92.30
2023-11-11T01:49:13.303Z,92.30
2023-11-11T01:50:13.421Z,92.40
2023-11-11T01:51:13.951Z,92.40
2023-11-11T01:52:13.235Z,92.50
2023-11-11T01:53:13.289Z,92.50
2023-11-11T01:54:13.162Z,92.60
2023-11-11T01:55:13.069Z,92.70
2023-11-11T01:56:12.905Z,92.60
2023-11-11T01:57:12.761Z,92.60
2023-11-11T01:58:13.812Z,92.70
2023-11-11T01:59:13.611Z,92.90
2023-11-11T02:00:13.989Z,92.90
2023-11-11T02:01:13.172Z,92.80
2023-11-11T02:02:13.211Z,92.70
2023-11-11T02:03:13.477Z,92.70
2023-11-11T02:04:13.726Z,92.80
2023-11-11T02:05:13.734Z,92.80
2023-11-11T02:06:13.666Z,92.70
2023-11-11T02:07:13.690Z,92.80
2023-11-11T02:08:13.785Z,92.70
2023-11-11T02:09:13.938Z,92.80
2023-11-11T02:10:12.920Z,92.70
2023-11-11T02:11:12.786Z,92.80
2023-11-11T02:12:13.666Z,92.80
2023-11-11T02:13:13.503Z,92.80
2023-11-11T02:14:13.363Z,92.90
2023-11-11T02:15:13.325Z,92.70
2023-11-11T02:16:13.182Z,92.70
2023-11-11T02:17:13.194Z,92.80
2023-11-11T02:18:13.117Z,92.90
2023-11-11T02:19:13.132Z,92.90
2023-11-11T02:20:13.065Z,92.90
2023-11-11T02:21:12.994Z,92.90
2023-11-11T02:22:12.885Z,93.00
2023-11-11T02:23:18.790Z,93.00
2023-11-11T02:24:13.921Z,93.00
2023-11-11T02:25:12.925Z,93.10
2023-11-11T02:26:12.821Z,93.10
2023-11-11T02:27:13.816Z,93.00
2023-11-11T02:28:13.753Z,93.00
2023-11-11T02:29:13.675Z,93.00
2023-11-11T02:30:13.768Z,92.90
2023-11-11T02:31:13.725Z,93.00
2023-11-11T02:32:13.814Z,93.00
2023-11-11T02:33:13.977Z,92.90
2023-11-11T02:34:12.726Z,92.90
2023-11-11T02:35:13.608Z,92.90
2023-11-11T02:36:13.600Z,92.80
2023-11-11T02:37:13.814Z,92.80
2023-11-11T02:38:13.774Z,92.90
2023-11-11T02:39:13.748Z,92.90
2023-11-11T02:40:13.792Z,92.90
2023-11-11T02:41:13.839Z,92.90
2023-11-11T02:42:13.747Z,92.80
2023-11-11T02:43:13.845Z,92.70
2023-11-11T02:44:13.855Z,92.70
2023-11-11T02:45:13.919Z,92.80
2023-11-11T02:46:12.931Z,92.80
2023-11-11T02:47:12.759Z,92.80
2023-11-11T02:48:13.502Z,92.70
2023-11-11T02:49:13.560Z,92.60
2023-11-11T02:50:13.372Z,92.70
2023-11-11T02:51:13.376Z,92.60
2023-11-11T02:52:13.219Z,92.80
2023-11-11T02:53:13.187Z,92.80
2023-11-11T02:54:13.081Z,92.70
2023-11-11T02:55:12.950Z,92.70
2023-11-11T02:56:13.545Z,92.60
2023-11-11T02:57:13.713Z,92.60
2023-11-11T02:58:13.801Z,92.60
2023-11-11T02:59:13.726Z,92.60
2023-11-11T03:00:13.746Z,92.50
2023-11-11T03:01:13.637Z,92.60
2023-11-11T03:02:13.827Z,92.60
2023-11-11T03:03:13.750Z,92.50
2023-11-11T03:04:13.960Z,92.50
2023-11-11T03:05:12.941Z,92.50
2023-11-11T03:06:12.876Z,92.40
2023-11-11T03:07:12.678Z,92.30
2023-11-11T03:08:13.498Z,92.30
2023-11-11T03:09:14.142Z,92.30
2023-11-11T03:10:13.335Z,92.30
2023-11-11T03:11:13.303Z,92.20
2023-11-11T03:12:13.240Z,92.20
2023-11-11T03:13:13.031Z,92.40
2023-11-11T03:15:13.694Z,92.30
2023-11-11T03:16:13.637Z,92.20
2023-11-11T03:17:13.806Z,92.30
2023-11-11T03:18:13.773Z,92.20
2023-11-11T03:19:13.672Z,92.20
2023-11-11T03:20:13.770Z,92.10
2023-11-11T03:21:13.672Z,92.20
2023-11-11T03:22:13.483Z,92.20
2023-11-11T03:23:13.437Z,92.20
2023-11-11T03:24:13.503Z,92.10
2023-11-11T03:25:13.670Z,92.10
2023-11-11T03:26:13.528Z,92.10
2023-11-11T03:27:13.673Z,92.20
2023-11-11T03:28:13.508Z,92.20
2023-11-11T03:29:13.499Z,92.10
2023-11-11T03:30:13.792Z,92.00
2023-11-11T03:31:13.714Z,92.10
2023-11-11T03:32:13.603Z,92.10
2023-11-11T03:33:13.490Z,92.10
2023-11-11T03:34:13.498Z,92.20
2023-11-11T03:35:13.540Z,92.20
2023-11-11T03:36:13.589Z,92.10
2023-11-11T03:37:13.572Z,92.10
2023-11-11T03:38:13.438Z,92.20
2023-11-11T03:39:13.340Z,92.30
2023-11-11T03:40:13.372Z,92.30
2023-11-11T03:41:13.217Z,92.30
2023-11-11T03:42:13.058Z,92.20
2023-11-11T03:43:12.943Z,92.10
2023-11-11T03:44:12.929Z,92.10
2023-11-11T03:45:12.674Z,92.20
2023-11-11T03:46:13.575Z,92.30
2023-11-11T03:47:13.520Z,92.10
2023-11-11T03:48:13.517Z,92.20
2023-11-11T03:49:13.523Z,92.20
2023-11-11T03:50:13.561Z,92.20
2023-11-11T03:51:13.348Z,92.10
2023-11-11T03:52:13.407Z,92.10
2023-11-11T03:53:13.284Z,92.10
2023-11-11T03:54:13.218Z,91.90
2023-11-11T03:55:13.117Z,92.10
2023-11-11T03:56:12.932Z,92.20
2023-11-11T03:57:12.952Z,92.10
2023-11-11T03:58:12.848Z,92.10
2023-11-11T03:59:13.682Z,92.20
2023-11-11T04:00:13.644Z,92.20
2023-11-11T04:01:13.633Z,92.20
2023-11-11T04:02:13.652Z,92.20
2023-11-11T04:03:13.880Z,92.20
2023-11-11T04:04:13.124Z,92.10
2023-11-11T04:05:13.064Z,92.10
2023-11-11T04:06:13.176Z,92.10
2023-11-11T04:07:13.034Z,92.10
2023-11-11T04:08:13.036Z,92.10
2023-11-11T04:09:13.273Z,92.00
2023-11-11T04:10:13.163Z,92.00
2023-11-11T04:11:13.010Z,92.00
2023-11-11T04:12:49.522Z,92.00
2023-11-11T04:13:13.598Z,91.90
2023-11-11T04:14:13.832Z,91.90
2023-11-11T04:15:13.912Z,92.00
2023-11-11T04:16:13.070Z,92.00
2023-11-11T04:17:13.417Z,92.00
2023-11-11T04:18:13.353Z,92.00
2023-11-11T04:19:13.308Z,91.90
2023-11-11T04:20:13.194Z,91.80
2023-11-11T04:21:13.655Z,91.80
2023-11-11T04:22:13.945Z,91.80
2023-11-11T04:23:13.043Z,91.90
2023-11-11T04:24:12.862Z,91.90
2023-11-11T04:25:13.756Z,91.90
2023-11-11T04:26:13.607Z,91.80
2023-11-11T04:27:13.568Z,91.80
2023-11-11T04:28:13.715Z,91.70
2023-11-11T04:29:13.791Z,91.70
2023-11-11T04:30:13.794Z,91.70
2023-11-11T04:31:13.934Z,91.70
2023-11-11T04:32:12.991Z,91.60
2023-11-11T04:33:12.946Z,91.60
2023-11-11T04:34:13.184Z,91.70
2023-11-11T04:35:13.212Z,91.70
2023-11-11T04:36:13.057Z,91.80
2023-11-11T04:37:12.996Z,91.80
2023-11-11T04:38:13.003Z,91.80
2023-11-11T04:39:12.958Z,91.90
2023-11-11T04:40:13.208Z,91.80
2023-11-11T04:41:13.077Z,91.80
2023-11-11T04:42:12.936Z,91.30
2023-11-11T04:43:12.901Z,91.10
2023-11-11T04:44:12.700Z,91.00
2023-11-11T04:45:13.562Z,91.00
2023-11-11T04:46:13.428Z,90.90
2023-11-11T04:47:13.725Z,91.00
2023-11-11T04:48:13.560Z,91.00
2023-11-11T04:49:13.514Z,91.10
2023-11-11T04:50:13.510Z,91.10
2023-11-11T04:51:13.459Z,91.10
2023-11-11T04:52:13.498Z,91.10
2023-11-11T04:53:13.474Z,91.10
2023-11-11T04:54:44.098Z,91.20
2023-11-11T04:55:13.068Z,91.20
2023-11-11T04:56:12.982Z,91.10
2023-11-11T04:57:12.943Z,91.20
2023-11-11T04:58:12.881Z,91.20
2023-11-11T04:59:13.712Z,91.30
2023-11-11T05:00:13.580Z,91.40
2023-11-11T05:01:13.462Z,91.50
2023-11-11T05:02:13.219Z,91.60
2023-11-11T05:03:13.285Z,91.60
2023-11-11T05:04:13.434Z,91.60
2023-11-11T05:05:13.353Z,91.80
2023-11-11T05:06:13.935Z,91.70
2023-11-11T05:07:12.838Z,91.60
2023-11-11T05:08:13.704Z,91.70
2023-11-11T05:09:13.759Z,91.80
2023-11-11T05:10:13.635Z,91.80
2023-11-11T05:11:13.456Z,91.90
2023-11-11T05:12:13.427Z,91.80
2023-11-11T05:13:13.573Z,91.80
2023-11-11T05:14:13.540Z,91.70
2023-11-11T05:15:13.533Z,91.80
2023-11-11T05:16:13.671Z,91.80
2023-11-11T05:17:13.463Z,91.70
2023-11-11T05:18:13.512Z,91.60
2023-11-11T05:19:13.363Z,91.60
2023-11-11T05:20:13.376Z,91.60
2023-11-11T05:21:13.289Z,91.60
2023-11-11T05:22:13.285Z,91.50
2023-11-11T05:23:13.521Z,91.40
2023-11-11T05:24:13.571Z,91.40
2023-11-11T05:25:13.742Z,91.30
2023-11-11T05:26:18.941Z,91.20
2023-11-11T05:27:17.726Z,91.10
2023-11-11T05:28:13.592Z,91.20
2023-11-11T05:29:14.087Z,91.20
2023-11-11T05:30:13.090Z,91.30
2023-11-11T05:31:13.010Z,91.10
2023-11-11T05:32:13.377Z,90.90
2023-11-11T05:33:13.527Z,91.00
2023-11-11T05:34:13.535Z,91.00
2023-11-11T05:35:13.572Z,91.00
2023-11-11T05:36:13.589Z,91.00
2023-11-11T05:37:13.616Z,90.90
2023-11-11T05:38:13.611Z,91.00
2023-11-11T05:39:13.433Z,91.10
2023-11-11T05:40:13.271Z,91.00
2023-11-11T05:41:13.019Z,91.10
2023-11-11T05:42:12.755Z,91.20
2023-11-11T05:43:13.650Z,91.20
2023-11-11T05:44:13.437Z,91.30
2023-11-11T05:45:13.411Z,91.20
2023-11-11T05:46:13.742Z,91.10
2023-11-11T05:47:13.598Z,91.10
2023-11-11T05:48:13.503Z,91.10
2023-11-11T05:49:13.363Z,91.10
2023-11-11T05:50:13.141Z,91.10
2023-11-11T05:51:13.474Z,91.10
2023-11-11T05:52:13.673Z,91.10
2023-11-11T05:53:43.964Z,91.10
2023-11-11T05:54:13.023Z,91.10
2023-11-11T05:55:12.910Z,91.10
2023-11-11T05:56:13.048Z,91.00
2023-11-11T05:57:13.126Z,90.90
2023-11-11T05:58:13.304Z,91.00
2023-11-11T05:59:14.085Z,90.90
2023-11-11T06:00:13.427Z,90.90
2023-11-11T06:01:13.829Z,90.70
2023-11-11T06:02:13.064Z,90.70
2023-11-11T06:03:13.124Z,90.30
2023-11-11T06:04:13.693Z,90.20
2023-11-11T06:05:13.515Z,90.00
2023-11-11T06:06:13.352Z,90.00
2023-11-11T06:07:14.570Z,90.20
2023-11-11T06:08:13.374Z,90.20
2023-11-11T06:09:14.472Z,90.20
2023-11-11T06:10:13.640Z,90.30
2023-11-11T06:11:13.660Z,90.30
2023-11-11T06:12:13.753Z,90.30
2023-11-11T06:13:13.899Z,90.50
2023-11-11T06:14:12.646Z,90.40
2023-11-11T06:15:13.616Z,90.50
2023-11-11T06:16:13.548Z,90.50
2023-11-11T06:17:13.531Z,90.60
2023-11-11T06:18:13.453Z,90.50
2023-11-11T06:19:13.481Z,90.50
2023-11-11T06:20:13.540Z,90.60
2023-11-11T06:21:13.385Z,90.50
2023-11-11T06:22:13.240Z,90.50
2023-11-11T06:24:13.237Z,90.70
2023-11-11T06:25:13.202Z,90.60
2023-11-11T06:26:13.066Z,90.50
2023-11-11T06:27:12.889Z,90.40
2023-11-11T06:28:12.691Z,90.40
2023-11-11T06:29:13.564Z,90.40
2023-11-11T06:30:13.812Z,90.30
2023-11-11T06:31:13.943Z,90.20
2023-11-11T06:32:12.734Z,90.10
2023-11-11T06:33:13.705Z,90.40
2023-11-11T06:34:13.647Z,90.40
2023-11-11T06:35:13.491Z,90.30
2023-11-11T06:36:13.487Z,90.40
2023-11-11T06:37:13.805Z,90.30
2023-11-11T06:38:13.962Z,89.80
2023-11-11T06:39:12.999Z,89.60
2023-11-11T06:40:12.888Z,89.50
2023-11-11T06:41:12.899Z,89.40
2023-11-11T06:42:12.832Z,89.10
2023-11-11T06:43:13.628Z,89.10
2023-11-11T06:44:13.495Z,89.10
2023-11-11T06:45:13.448Z,89.20
2023-11-11T06:46:28.473Z,89.50
2023-11-11T06:47:13.317Z,89.50
2023-11-11T06:48:13.394Z,89.50
2023-11-11T06:49:13.467Z,89.60
2023-11-11T06:50:13.305Z,89.80
2023-11-11T06:51:13.153Z,89.80
2023-11-11T06:52:13.345Z,90.00
2023-11-11T06:53:13.136Z,89.90
2023-11-11T06:54:12.937Z,89.90
2023-11-11T06:55:13.093Z,90.00
2023-11-11T06:56:13.023Z,89.90
2023-11-11T06:57:12.953Z,90.00
2023-11-11T06:58:12.915Z,89.90
2023-11-11T06:59:12.940Z,90.00
2023-11-11T07:00:12.888Z,90.00
2023-11-11T07:01:13.097Z,90.00
2023-11-11T07:02:13.248Z,90.00
2023-11-11T07:03:13.109Z,90.20
2023-11-11T07:04:13.268Z,90.20
2023-11-11T07:05:13.289Z,90.20
2023-11-11T07:06:13.441Z,90.20
2023-11-11T07:07:13.325Z,90.20
2023-11-11T07:08:13.484Z,90.30
2023-11-11T07:09:13.373Z,90.40
2023-11-11T07:10:13.502Z,90.20
2023-11-11T07:11:14.130Z,90.10
2023-11-11T07:12:13.032Z,90.20
2023-11-11T07:13:12.824Z,90.20
2023-11-11T07:14:13.636Z,90.00
2023-11-11T07:15:13.541Z,89.90
2023-11-11T07:16:13.446Z,90.10
2023-11-11T07:17:13.333Z,89.90
2023-11-11T07:18:13.620Z,89.90
2023-11-11T07:19:13.796Z,89.80
2023-11-11T07:20:13.724Z,89.90
2023-11-11T07:21:13.656Z,90.00
2023-11-11T07:23:13.436Z,90.30
2023-11-11T07:24:14.036Z,90.30
2023-11-11T07:25:13.093Z,90.20
2023-11-11T07:27:13.576Z,90.30
2023-11-11T07:28:13.729Z,90.30
2023-11-11T07:29:13.637Z,90.30
2023-11-11T07:30:13.732Z,90.50
2023-11-11T07:31:13.778Z,90.50
2023-11-11T07:33:13.351Z,90.70
2023-11-11T07:35:12.959Z,90.80
2023-11-11T07:36:12.830Z,90.80
2023-11-11T07:37:14.116Z,90.90
2023-11-11T07:39:13.335Z,90.80
2023-11-11T07:40:13.311Z,90.70
2023-11-11T07:41:13.205Z,90.70
2023-11-11T07:43:13.817Z,90.60
2023-11-11T07:44:13.572Z,90.80
2023-11-11T07:45:13.455Z,90.70
2023-11-11T07:46:13.465Z,90.70
2023-11-11T07:47:13.741Z,90.80
2023-11-11T07:49:13.532Z,90.80
2023-11-11T07:50:13.405Z,90.80
2023-11-11T07:51:13.281Z,90.80
2023-11-11T07:52:13.112Z,90.60
2023-11-11T07:53:12.952Z,90.70
2023-11-11T07:54:12.811Z,90.70
2023-11-11T07:55:14.060Z,90.60
2023-11-11T07:57:12.737Z,90.60
2023-11-11T07:59:13.850Z,90.60
2023-11-11T08:00:13.859Z,90.60
2023-11-11T08:01:13.759Z,90.60
2023-11-11T08:02:13.743Z,90.40
2023-11-11T08:03:13.601Z,90.40
2023-11-11T08:04:13.596Z,90.40
2023-11-11T08:05:13.624Z,90.30
2023-11-11T08:06:13.439Z,90.20
2023-11-11T08:07:13.267Z,90.20
2023-11-11T08:08:16.715Z,90.20
2023-11-11T08:09:13.568Z,90.00
2023-11-11T08:10:13.340Z,90.00
2023-11-11T08:12:13.348Z,89.80
2023-11-11T08:13:13.510Z,89.60
2023-11-11T08:14:13.377Z,89.60
2023-11-11T08:15:13.732Z,89.80
2023-11-11T08:16:14.121Z,89.70
2023-11-11T08:17:18.113Z,89.60
2023-11-11T08:18:13.153Z,89.50
2023-11-11T08:19:13.050Z,89.60
2023-11-11T08:20:12.968Z,89.50
2023-11-11T08:21:12.995Z,89.50
2023-11-11T08:23:13.287Z,89.80
2023-11-11T08:24:13.189Z,89.70
2023-11-11T08:25:13.008Z,89.20
2023-11-11T08:26:12.778Z,89.30
2023-11-11T08:28:13.594Z,89.40
2023-11-11T08:29:13.918Z,89.50
2023-11-11T08:31:13.801Z,89.70
2023-11-11T08:32:14.139Z,89.20
2023-11-11T08:34:13.857Z,89.30
2023-11-11T08:35:38.958Z,89.50
2023-11-11T08:36:12.978Z,89.60
2023-11-11T08:37:13.185Z,89.40
2023-11-11T08:38:13.145Z,89.50
2023-11-11T08:40:12.975Z,89.40
2023-11-11T08:41:13.249Z,89.50
2023-11-11T08:42:13.338Z,89.10
2023-11-11T08:43:13.334Z,89.00
2023-11-11T08:44:13.202Z,88.40
2023-11-11T08:46:12.901Z,88.50
2023-11-11T08:48:13.565Z,88.10
2023-11-11T08:49:13.670Z,88.00
2023-11-11T08:50:13.736Z,87.60
2023-11-11T08:51:13.649Z,87.50
2023-11-11T08:52:41.593Z,87.60
2023-11-11T08:53:13.719Z,87.40
2023-11-11T08:54:20.088Z,87.40
2023-11-11T08:55:13.096Z,87.60
2023-11-11T08:56:13.029Z,87.50
2023-11-11T08:57:13.026Z,87.70
2023-11-11T08:58:12.771Z,87.60
2023-11-11T08:59:13.752Z,87.40
2023-11-11T09:00:31.006Z,87.50
2023-11-11T09:01:13.092Z,87.60
2023-11-11T09:02:13.518Z,87.60
2023-11-11T09:03:14.428Z,87.80
2023-11-11T09:04:13.488Z,87.50
2023-11-11T09:05:29.819Z,87.60
2023-11-11T09:06:13.804Z,87.60
2023-11-11T09:07:13.853Z,87.70
2023-11-11T09:08:14.046Z,87.40
2023-11-11T09:09:14.106Z,87.60
2023-11-11T09:10:12.997Z,87.60
2023-11-11T09:11:13.002Z,87.60
2023-11-11T09:12:13.337Z,87.60
2023-11-11T09:13:13.583Z,87.90
2023-11-11T09:14:13.742Z,87.90
2023-11-11T09:15:13.942Z,88.00
2023-11-11T09:16:12.947Z,88.10
2023-11-11T09:17:28.268Z,88.10
2023-11-11T09:18:13.827Z,88.20
2023-11-11T09:19:18.007Z,88.10
2023-11-11T09:20:13.031Z,88.30
2023-11-11T09:21:14.037Z,88.30
2023-11-11T09:22:13.774Z,88.50
2023-11-11T09:23:13.754Z,88.70
2023-11-11T09:24:13.908Z,88.60
2023-11-11T09:25:12.832Z,88.10
2023-11-11T09:26:13.823Z,88.30
2023-11-11T09:27:15.829Z,88.40
2023-11-11T09:28:13.537Z,88.50
2023-11-11T09:29:13.468Z,88.40
2023-11-11T09:30:13.374Z,88.40
2023-11-11T09:31:13.486Z,87.80
2023-11-11T09:32:13.640Z,88.00
2023-11-11T09:33:13.741Z,87.80
2023-11-11T09:34:13.622Z,88.00
2023-11-11T09:36:16.383Z,88.50
2023-11-11T09:37:13.671Z,88.00
2023-11-11T09:38:13.477Z,87.70
2023-11-11T09:39:24.318Z,87.50
2023-11-11T09:40:13.357Z,87.70
2023-11-11T09:41:13.096Z,87.70
2023-11-11T09:42:12.870Z,87.80
2023-11-11T09:43:13.801Z,87.90
2023-11-11T09:46:12.863Z,87.10
2023-11-11T09:47:13.713Z,87.80
2023-11-11T09:48:13.836Z,87.20
2023-11-11T09:49:13.748Z,87.40
2023-11-11T09:50:13.622Z,87.20
2023-11-11T09:51:13.492Z,87.20
2023-11-11T09:52:13.418Z,87.30
2023-11-11T09:53:13.280Z,87.30
2023-11-11T09:54:13.269Z,87.20
2023-11-11T09:55:13.159Z,86.80
2023-11-11T09:57:03.147Z,86.70
2023-11-11T09:57:13.209Z,87.00
2023-11-11T09:58:13.101Z,87.30
2023-11-11T09:59:13.092Z,86.80
2023-11-11T10:00:12.981Z,86.80
2023-11-11T10:01:13.164Z,86.70
2023-11-11T10:02:13.096Z,87.20
2023-11-11T10:03:13.383Z,87.00
2023-11-11T10:04:13.503Z,86.70
2023-11-11T10:05:13.515Z,86.50
2023-11-11T10:06:13.420Z,86.90
2023-11-11T10:07:13.232Z,87.10
2023-11-11T10:08:13.469Z,86.60
2023-11-11T10:09:13.849Z,86.30
2023-11-11T10:10:13.778Z,86.00
2023-11-11T10:11:13.887Z,86.40
2023-11-11T10:12:14.348Z,86.20
2023-11-11T10:14:13.390Z,86.10
2023-11-11T10:15:13.360Z,86.10
2023-11-11T10:16:22.017Z,86.30
2023-11-11T10:17:13.173Z,86.30
2023-11-11T10:18:13.088Z,86.00
2023-11-11T10:19:18.721Z,86.00
2023-11-11T10:20:14.359Z,86.00
2023-11-11T10:21:13.515Z,86.20
2023-11-11T10:22:13.690Z,85.90
2023-11-11T10:23:13.749Z,85.30
2023-11-11T10:24:13.981Z,85.60
2023-11-11T10:25:13.056Z,85.30
2023-11-11T10:26:12.930Z,85.40
2023-11-11T10:27:13.106Z,85.70
2023-11-11T10:28:13.212Z,85.50
2023-11-11T10:29:13.058Z,85.30
2023-11-11T10:30:13.053Z,85.00
2023-11-11T10:31:21.169Z,85.10
2023-11-11T10:32:13.424Z,84.50
2023-11-11T10:33:13.330Z,85.00
2023-11-11T10:34:13.856Z,84.80
2023-11-11T10:35:13.806Z,85.10
2023-11-11T10:36:13.735Z,85.20
2023-11-11T10:37:13.927Z,85.30
2023-11-11T10:38:17.833Z,85.30
2023-11-11T10:39:14.132Z,85.30
2023-11-11T10:40:14.314Z,85.70
2023-11-11T10:41:33.453Z,85.30
2023-11-11T10:42:13.416Z,84.60
2023-11-11T10:43:13.524Z,84.80
2023-11-11T10:44:13.485Z,84.60
2023-11-11T10:45:13.534Z,84.70
2023-11-11T10:46:13.810Z,84.90
2023-11-11T10:47:14.013Z,84.60
2023-11-11T10:48:13.172Z,84.60
2023-11-11T10:49:13.143Z,84.90
2023-11-11T10:50:13.366Z,84.70
2023-11-11T10:51:13.341Z,84.20
2023-11-11T10:52:13.226Z,83.60
2023-11-11T10:53:13.106Z,83.80
2023-11-11T10:54:14.064Z,83.80
2023-11-11T10:55:13.142Z,83.90
2023-11-11T10:56:13.023Z,83.80
2023-11-11T10:57:13.060Z,84.30
2023-11-11T10:58:12.894Z,84.50
2023-11-11T10:59:12.814Z,84.20
2023-11-11T11:00:13.994Z,83.70
2023-11-11T11:01:13.008Z,84.30
2023-11-11T11:02:13.149Z,84.00
2023-11-11T11:03:13.115Z,83.00
2023-11-11T11:04:13.471Z,82.20
2023-11-11T11:05:13.570Z,82.30
2023-11-11T11:06:13.985Z,82.10
2023-11-11T11:07:12.906Z,81.90
2023-11-11T11:08:13.163Z,82.50
2023-11-11T11:09:13.407Z,82.70
2023-11-11T11:11:13.675Z,82.80
2023-11-11T11:12:13.707Z,83.20
2023-11-11T11:13:39.924Z,83.60
2023-11-11T11:14:13.157Z,84.00
2023-11-11T11:15:13.047Z,84.00
2023-11-11T11:16:13.125Z,83.70
2023-11-11T11:17:13.124Z,84.00
2023-11-11T11:18:13.108Z,83.20
2023-11-11T11:19:13.112Z,83.50
2023-11-11T11:20:13.302Z,83.80
2023-11-11T11:21:18.286Z,83.40
2023-11-11T11:22:13.522Z,83.60
2023-11-11T11:23:13.597Z,83.80
2023-11-11T11:24:13.723Z,84.00
2023-11-11T11:25:13.705Z,83.80
2023-11-11T11:26:13.502Z,83.20
2023-11-11T11:27:13.426Z,83.40
2023-11-11T11:29:13.217Z,83.40
2023-11-11T11:30:13.044Z,83.10
2023-11-11T11:32:14.352Z,81.50
2023-11-11T11:33:13.328Z,81.10
2023-11-11T11:34:13.297Z,81.40
2023-11-11T11:35:13.282Z,81.90
2023-11-11T11:36:18.570Z,81.30
2023-11-11T11:37:13.905Z,81.30
2023-11-11T11:38:30.613Z,81.80
2023-11-11T11:39:13.570Z,81.80
2023-11-11T11:40:13.406Z,81.90
2023-11-11T11:41:13.161Z,82.10
2023-11-11T11:42:12.936Z,81.90
2023-11-11T11:43:18.117Z,82.10
2023-11-11T11:44:13.267Z,82.50
2023-11-11T11:45:13.173Z,82.40
2023-11-11T11:46:13.264Z,82.50
2023-11-11T11:47:13.194Z,81.80
2023-11-11T11:48:13.434Z,81.70
2023-11-11T11:49:13.714Z,81.20
2023-11-11T11:50:13.483Z,81.60
2023-11-11T11:51:18.321Z,81.80
2023-11-11T11:52:18.269Z,81.90
2023-11-11T11:53:39.774Z,81.90
2023-11-11T11:54:13.937Z,81.60
2023-11-11T11:55:12.910Z,81.30
2023-11-11T11:56:12.860Z,81.40
2023-11-11T11:57:12.860Z,81.00
2023-11-11T11:58:13.893Z,81.80
2023-11-11T11:59:14.432Z,81.60
2023-11-11T12:00:13.319Z,81.70
2023-11-11T12:01:13.570Z,81.50
2023-11-11T12:02:13.743Z,81.60
2023-11-11T12:03:13.751Z,81.80
2023-11-11T12:04:13.653Z,81.70
2023-11-11T12:05:13.580Z,81.50
2023-11-11T12:06:13.576Z,81.30
2023-11-11T12:07:13.580Z,81.60
2023-11-11T12:08:13.415Z,81.90
2023-11-11T12:09:13.445Z,81.90
2023-11-11T12:10:15.913Z,81.50
2023-11-11T12:11:13.358Z,81.90
2023-11-11T12:12:13.236Z,81.90
2023-11-11T12:13:13.873Z,82.20
2023-11-11T12:14:13.883Z,81.50
2023-11-11T12:15:12.983Z,82.10
2023-11-11T12:16:13.456Z,82.00
2023-11-11T12:17:13.580Z,81.90
2023-11-11T12:18:21.083Z,81.90
2023-11-11T12:19:13.555Z,82.30
2023-11-11T12:20:13.597Z,82.00
2023-11-11T12:21:13.892Z,82.30
2023-11-11T12:22:18.127Z,80.60
2023-11-11T12:23:13.316Z,80.90
2023-11-11T12:24:13.394Z,80.90
2023-11-11T12:25:42.534Z,81.20
2023-11-11T12:26:13.433Z,81.30
2023-11-11T12:27:13.307Z,81.50
2023-11-11T12:28:13.476Z,81.40
2023-11-11T12:29:19.038Z,79.70
2023-11-11T12:30:12.968Z,80.10
2023-11-11T12:31:13.146Z,79.90
2023-11-11T12:32:13.395Z,80.10
2023-11-11T12:33:13.730Z,79.70
2023-11-11T12:34:13.806Z,79.80
2023-11-11T12:35:13.688Z,79.80
2023-11-11T12:36:13.789Z,80.00
2023-11-11T12:37:13.753Z,80.10
2023-11-11T12:38:13.706Z,79.70
2023-11-11T12:39:13.798Z,78.80
2023-11-11T12:40:19.905Z,79.00
2023-11-11T12:41:18.248Z,79.10
2023-11-11T12:42:13.080Z,78.30
2023-11-11T12:43:18.120Z,77.50
2023-11-11T12:44:13.181Z,78.10
2023-11-11T12:45:13.109Z,77.40
2023-11-11T12:46:13.163Z,77.00
2023-11-11T12:47:13.183Z,77.60
2023-11-11T12:48:13.253Z,77.50
2023-11-11T12:49:13.314Z,77.60
2023-11-11T12:50:13.499Z,77.70
2023-11-11T12:51:13.491Z,78.00
2023-11-11T12:52:13.362Z,78.50
2023-11-11T12:53:13.253Z,79.30
2023-11-11T12:54:13.103Z,80.40
2023-11-11T12:55:13.036Z,81.30
2023-11-11T12:56:13.056Z,81.80
2023-11-11T12:57:13.066Z,82.00
2023-11-11T12:58:12.902Z,82.60
2023-11-11T12:59:12.848Z,83.20
2023-11-11T13:00:13.047Z,83.60
2023-11-11T13:01:12.950Z,84.20
2023-11-11T13:02:12.882Z,84.50
2023-11-11T13:03:12.858Z,84.40
2023-11-11T13:04:12.820Z,83.50
2023-11-11T13:05:13.896Z,84.50
2023-11-11T13:06:12.794Z,85.50
2023-11-11T13:07:13.997Z,85.80
2023-11-11T13:08:12.784Z,85.70
2023-11-11T13:09:13.989Z,85.60
2023-11-11T13:10:12.856Z,85.50
2023-11-11T13:11:13.787Z,86.10
2023-11-11T13:12:13.851Z,86.50
2023-11-11T13:13:13.741Z,86.90
2023-11-11T13:14:13.549Z,87.00
2023-11-11T13:15:13.506Z,87.20
2023-11-11T13:16:13.742Z,87.30
2023-11-11T13:17:13.783Z,87.50
2023-11-11T13:18:12.826Z,86.50
2023-11-11T13:19:14.586Z,86.20